Time;durP1;ratioP1;P1;durP2;ratioP2;P2;SDS_P1;SDS_P2;PMS_P1;PMS_P2;Temp;Humidity;BMP_temperature;BMP_pressure;BME280_temperature;BME280_humidity;BME280_pressure;Samples;Min_cycle;Max_cycle;Signal;HPM_P1;HPM_P2
2022/12/29 00:01:37;;;;;;;18.13;10.67;;;6.70;85.10;;;;;;5069306;28;20249;-74
2022/12/29 00:04:03;;;;;;;14.87;10.30;;;6.70;85.00;;;;;;5072181;28;20187;-75
2022/12/29 00:06:29;;;;;;;19.93;12.00;;;6.70;85.40;;;;;;5074261;28;20187;-73
2022/12/29 00:08:55;;;;;;;21.00;10.43;;;6.70;85.40;;;;;;5076516;28;20179;-74
2022/12/29 00:11:26;;;;;;;14.83;10.17;;;6.60;84.90;;;;;;5075264;28;21078;-74
2022/12/29 00:16:42;;;;;;;12.77;9.60;;;6.60;84.30;;;;;;5078202;28;21054;-73
2022/12/29 00:35:07;;;;;;;18.77;9.80;;;6.60;84.50;;;;;;5074736;28;20592;-73
2022/12/29 00:36:19;;;;;;;14.30;8.27;;;6.80;83.90;;;;;;5002956;28;20208;-74
2022/12/29 00:44:36;;;;;;;13.07;8.27;;;6.90;84.00;;;;;;5002596;28;20768;-73
2022/12/29 00:47:03;;;;;;;13.93;8.47;;;6.90;84.00;;;;;;5002343;28;20204;-74
2022/12/29 00:49:32;;;;;;;13.33;8.53;;;6.90;84.10;;;;;;5002065;28;20185;-74
2022/12/29 00:51:59;;;;;;;10.10;7.63;;;7.00;84.10;;;;;;5001956;28;20188;-74
2022/12/29 00:54:25;;;;;;;15.87;8.57;;;7.00;84.20;;;;;;5001830;28;20798;-73
2022/12/29 00:56:52;;;;;;;14.20;9.43;;;7.00;84.30;;;;;;5005149;28;20196;-74
2022/12/29 00:59:18;;;;;;;16.23;9.27;;;7.10;84.70;;;;;;5005175;28;21092;-75
2022/12/29 01:01:44;;;;;;;12.77;9.33;;;7.10;84.40;;;;;;5004427;28;20264;-74
2022/12/29 01:04:11;;;;;;;15.67;9.33;;;7.10;84.10;;;;;;5005152;28;20193;-74
2022/12/29 01:06:38;;;;;;;21.57;9.50;;;7.00;83.80;;;;;;5002402;28;20201;-72
2022/12/29 01:11:50;;;;;;;15.30;8.53;;;7.00;83.70;;;;;;5009784;28;20220;-74
2022/12/29 01:14:16;;;;;;;12.13;9.10;;;7.10;84.10;;;;;;5067034;28;20183;-72
2022/12/29 01:16:42;;;;;;;15.33;9.13;;;7.10;84.30;;;;;;5073087;28;20200;-75
2022/12/29 01:19:08;;;;;;;16.63;9.37;;;7.10;84.10;;;;;;5072392;28;20207;-74
2022/12/29 01:21:33;;;;;;;19.73;9.33;;;7.00;84.00;;;;;;5071489;28;20171;-73
2022/12/29 01:23:59;;;;;;;11.10;8.97;;;7.00;83.90;;;;;;5072695;28;20243;-73
2022/12/29 01:26:25;;;;;;;12.43;7.87;;;7.00;83.80;;;;;;5071328;28;20231;-73
2022/12/29 01:28:51;;;;;;;13.10;8.23;;;6.90;83.80;;;;;;5079599;28;20240;-73
2022/12/29 01:31:17;;;;;;;11.50;7.43;;;6.90;83.70;;;;;;5070309;28;20315;-73
2022/12/29 01:33:43;;;;;;;11.67;8.23;;;6.90;83.70;;;;;;5078043;28;21084;-73
2022/12/29 01:36:12;;;;;;;13.40;8.23;;;6.90;83.90;;;;;;5075730;28;20547;-73
2022/12/29 01:38:38;;;;;;;14.37;8.10;;;6.90;83.60;;;;;;5074310;28;20689;-73
2022/12/29 01:41:06;;;;;;;11.63;7.97;;;6.90;83.60;;;;;;5074395;28;20183;-74
2022/12/29 01:43:43;;;;;;;9.93;6.73;;;6.90;83.80;;;;;;5073986;28;22076;-73
2022/12/29 01:46:34;;;;;;;13.13;7.70;;;6.90;83.80;;;;;;5077688;28;20239;-75
2022/12/29 01:49:15;;;;;;;12.93;7.47;;;6.90;83.50;;;;;;5078655;28;21108;-73
2022/12/29 01:51:48;;;;;;;11.83;7.40;;;6.90;83.60;;;;;;5076195;28;20269;-74
2022/12/29 01:54:32;;;;;;;10.80;7.67;;;6.90;83.80;;;;;;5075706;28;20183;-72
2022/12/29 01:57:02;;;;;;;11.60;7.37;;;6.80;83.60;;;;;;5075052;28;20203;-73
2022/12/29 01:59:34;;;;;;;15.17;8.23;;;6.80;83.80;;;;;;5079951;28;20194;-74
2022/12/29 02:02:00;;;;;;;9.10;7.07;;;6.80;83.70;;;;;;5080018;28;20186;-73
2022/12/29 02:04:29;;;;;;;12.43;6.20;;;6.80;83.60;;;;;;5075225;28;20235;-72
2022/12/29 02:07:04;;;;;;;9.47;6.90;;;6.80;83.60;;;;;;5075454;28;20714;-73
2022/12/29 02:09:30;;;;;;;9.83;6.67;;;6.70;83.50;;;;;;5081384;28;20194;-76
2022/12/29 02:11:58;;;;;;;10.60;6.63;;;6.70;83.80;;;;;;5070777;28;21038;-74
2022/12/29 02:14:23;;;;;;;9.40;6.60;;;6.80;83.90;;;;;;5077985;28;20193;-72
2022/12/29 02:17:05;;;;;;;10.90;5.90;;;6.80;83.90;;;;;;5078491;28;20179;-73
2022/12/29 02:19:56;;;;;;;11.47;6.53;;;6.80;83.60;;;;;;5077553;28;20251;-73
2022/12/29 02:22:45;;;;;;;8.87;6.13;;;6.80;83.70;;;;;;5083393;28;20213;-75
2022/12/29 02:25:16;;;;;;;6.00;5.23;;;6.80;83.70;;;;;;5083785;28;20183;-74
2022/12/29 02:28:07;;;;;;;8.00;5.80;;;6.80;84.00;;;;;;5086374;28;20182;-75
2022/12/29 02:30:54;;;;;;;6.77;5.43;;;6.80;83.90;;;;;;5079120;28;20205;-74
2022/12/29 02:33:23;;;;;;;8.13;5.70;;;6.80;83.90;;;;;;5082937;28;20178;-75
2022/12/29 02:35:51;;;;;;;7.27;5.53;;;6.90;84.10;;;;;;5076301;28;20574;-74
2022/12/29 02:38:48;;;;;;;8.77;5.80;;;6.90;84.20;;;;;;5075791;28;20216;-73
2022/12/29 02:41:34;;;;;;;6.77;5.13;;;6.90;84.00;;;;;;5084970;28;20178;-75
2022/12/29 02:44:24;;;;;;;5.90;5.00;;;6.90;84.00;;;;;;5078813;28;20411;-74
2022/12/29 02:47:10;;;;;;;8.93;5.40;;;6.90;83.90;;;;;;5082213;28;20214;-74
2022/12/29 02:49:53;;;;;;;6.20;4.83;;;6.90;83.90;;;;;;5081050;28;20977;-73
2022/12/29 02:52:27;;;;;;;8.93;5.43;;;6.90;84.00;;;;;;5062073;28;20178;-75
2022/12/29 02:54:56;;;;;;;9.67;5.37;;;6.90;84.00;;;;;;5062831;28;20194;-74
2022/12/29 02:57:21;;;;;;;8.27;6.03;;;6.90;84.10;;;;;;5081795;28;20210;-75
2022/12/29 03:00:08;;;;;;;6.97;4.90;;;6.90;84.10;;;;;;5082105;28;20181;-73
2022/12/29 03:02:52;;;;;;;5.27;4.77;;;6.80;83.80;;;;;;5080500;28;20678;-74
2022/12/29 03:05:41;;;;;;;6.97;5.27;;;6.80;83.60;;;;;;5075111;28;20183;-74
2022/12/29 03:08:19;;;;;;;5.63;4.73;;;6.80;84.10;;;;;;4992708;28;20209;-74
2022/12/29 03:11:00;;;;;;;7.90;5.07;;;6.80;84.00;;;;;;4998786;28;20261;-74
2022/12/29 03:16:40;;;;;;;5.93;4.43;;;6.80;83.70;;;;;;4994785;28;20271;-74
2022/12/29 03:19:19;;;;;;;7.67;5.13;;;6.80;83.90;;;;;;5000106;28;20314;-73
2022/12/29 03:24:41;;;;;;;7.07;4.87;;;6.70;83.70;;;;;;4994698;28;20199;-74
2022/12/29 03:27:12;;;;;;;7.70;5.27;;;6.70;83.70;;;;;;4992818;28;20244;-73
2022/12/29 03:29:42;;;;;;;9.50;5.10;;;6.70;83.80;;;;;;4991793;28;20260;-73
2022/12/29 03:32:11;;;;;;;8.87;5.17;;;6.60;83.50;;;;;;4987607;28;20201;-74
2022/12/29 03:34:38;;;;;;;6.67;5.30;;;6.60;83.50;;;;;;4995459;28;20275;-74
2022/12/29 03:37:34;;;;;;;9.63;6.03;;;6.50;83.40;;;;;;4997086;28;20356;-74
2022/12/29 03:40:00;;;;;;;7.43;5.60;;;6.50;83.30;;;;;;4992335;28;20197;-74
2022/12/29 03:42:29;;;;;;;7.93;5.40;;;6.40;83.50;;;;;;4992538;28;20979;-72
2022/12/29 03:44:56;;;;;;;7.47;5.53;;;6.40;83.50;;;;;;5023737;28;20197;-72
2022/12/29 03:47:22;;;;;;;6.57;4.97;;;6.30;83.50;;;;;;5074016;28;20202;-74
2022/12/29 03:49:49;;;;;;;7.73;5.60;;;6.30;83.50;;;;;;5059051;28;20178;-74
2022/12/29 03:52:15;;;;;;;5.27;4.80;;;6.20;83.50;;;;;;5080285;28;20174;-73
2022/12/29 03:54:40;;;;;;;6.60;4.83;;;6.20;83.60;;;;;;5077452;28;20567;-74
2022/12/29 03:57:06;;;;;;;8.43;6.00;;;6.10;83.50;;;;;;5076737;28;20182;-72
2022/12/29 03:59:32;;;;;;;7.63;5.47;;;6.10;83.60;;;;;;5076932;28;20181;-74
2022/12/29 04:01:57;;;;;;;5.63;4.13;;;6.00;83.60;;;;;;5081254;28;20183;-75
2022/12/29 04:04:23;;;;;;;7.10;4.83;;;6.00;83.90;;;;;;5080953;28;20183;-72
2022/12/29 04:06:49;;;;;;;9.57;5.47;;;5.90;84.00;;;;;;5077129;28;20593;-73
2022/12/29 04:09:14;;;;;;;7.70;5.83;;;5.80;83.90;;;;;;5078092;28;20770;-73
2022/12/29 04:11:40;;;;;;;10.27;5.23;;;5.80;84.00;;;;;;5075915;28;20190;-75
2022/12/29 04:14:06;;;;;;;6.43;4.80;;;5.70;84.00;;;;;;5073060;28;20257;-73
2022/12/29 04:16:33;;;;;;;9.33;4.50;;;5.70;84.10;;;;;;5078979;28;20178;-74
2022/12/29 04:18:58;;;;;;;5.07;4.67;;;5.60;83.90;;;;;;5055736;28;20807;-73
2022/12/29 04:21:24;;;;;;;5.53;5.03;;;5.60;84.10;;;;;;5068759;28;20217;-73
2022/12/29 04:23:50;;;;;;;6.27;5.27;;;5.50;84.20;;;;;;5075903;28;20235;-74
2022/12/29 04:26:15;;;;;;;8.33;5.03;;;5.50;84.40;;;;;;5073266;28;20179;-72
2022/12/29 04:28:41;;;;;;;4.90;4.43;;;5.40;84.50;;;;;;5075024;28;20274;-73
2022/12/29 04:31:06;;;;;;;9.67;4.70;;;5.40;84.60;;;;;;5073629;28;20217;-72
2022/12/29 04:33:32;;;;;;;8.37;5.00;;;5.40;84.60;;;;;;5076150;28;20728;-74
2022/12/29 04:35:58;;;;;;;6.90;4.57;;;5.30;84.80;;;;;;5078195;28;20568;-74
2022/12/29 04:38:24;;;;;;;8.07;5.07;;;5.30;84.80;;;;;;5076122;28;20209;-75
2022/12/29 04:40:51;;;;;;;8.00;4.83;;;5.30;84.90;;;;;;5077083;28;20186;-74
2022/12/29 04:43:18;;;;;;;6.13;5.40;;;5.20;85.10;;;;;;5077338;28;20175;-74
2022/12/29 04:45:48;;;;;;;6.30;4.47;;;5.20;85.20;;;;;;5077976;28;20273;-74
2022/12/29 04:48:14;;;;;;;5.67;4.57;;;5.20;85.30;;;;;;5076768;28;20244;-73
2022/12/29 04:50:40;;;;;;;6.97;5.27;;;5.20;85.60;;;;;;5078874;28;20191;-74
2022/12/29 04:53:07;;;;;;;5.77;4.90;;;5.20;85.70;;;;;;5078022;28;20185;-73
2022/12/29 04:55:33;;;;;;;11.40;6.13;;;5.20;85.90;;;;;;5075321;28;20235;-73
2022/12/29 04:57:58;;;;;;;5.67;4.87;;;5.10;86.30;;;;;;5070331;28;20214;-73
2022/12/29 05:00:24;;;;;;;6.30;4.83;;;5.10;86.30;;;;;;5074326;28;20186;-74
2022/12/29 05:02:51;;;;;;;6.67;5.23;;;5.10;86.30;;;;;;5077135;28;20189;-74
2022/12/29 05:05:16;;;;;;;8.07;5.40;;;5.10;86.50;;;;;;5074853;28;20285;-73
2022/12/29 05:07:42;;;;;;;5.60;5.03;;;5.10;86.60;;;;;;5069907;28;20415;-73
2022/12/29 05:10:08;;;;;;;6.63;4.97;;;5.10;86.50;;;;;;5072309;28;20621;-73
2022/12/29 05:12:35;;;;;;;9.17;5.33;;;5.10;86.80;;;;;;5075434;28;20300;-74
2022/12/29 05:15:02;;;;;;;9.53;5.90;;;5.10;87.10;;;;;;5074835;28;20201;-73
2022/12/29 05:18:15;;;;;;;9.40;5.77;;;5.10;87.20;;;;;;5053291;28;20650;-75
2022/12/29 05:20:40;;;;;;;5.77;4.87;;;5.20;87.10;;;;;;5076933;28;20186;-73
2022/12/29 05:23:06;;;;;;;8.93;4.60;;;5.20;87.50;;;;;;5076981;28;20244;-73
2022/12/29 05:25:31;;;;;;;8.13;5.07;;;5.20;87.80;;;;;;5076952;28;20194;-74
2022/12/29 05:27:57;;;;;;;11.50;5.83;;;5.20;87.60;;;;;;5080242;28;20210;-73
2022/12/29 05:30:23;;;;;;;10.27;6.30;;;5.20;87.30;;;;;;5075203;28;20197;-73
2022/12/29 05:32:49;;;;;;;8.20;5.90;;;5.00;88.40;;;;;;5077211;28;20193;-74
2022/12/29 05:35:15;;;;;;;7.73;5.27;;;5.00;88.40;;;;;;5076121;28;20187;-73
2022/12/29 05:37:40;;;;;;;8.17;5.63;;;5.00;88.40;;;;;;5075115;28;20214;-75
2022/12/29 05:40:07;;;;;;;5.97;5.03;;;5.10;87.90;;;;;;5071350;28;20235;-73
2022/12/29 05:42:32;;;;;;;8.30;5.47;;;5.20;88.10;;;;;;5075480;28;20268;-73
2022/12/29 05:44:58;;;;;;;7.50;5.83;;;5.20;87.60;;;;;;5074020;28;20183;-74
2022/12/29 05:47:24;;;;;;;7.90;5.20;;;5.30;88.00;;;;;;5073085;28;20221;-74
2022/12/29 05:49:51;;;;;;;7.17;4.97;;;5.30;87.90;;;;;;5074610;28;20189;-73
2022/12/29 05:52:43;;;;;;;8.90;5.33;;;5.40;87.70;;;;;;5058318;28;20860;-73
2022/12/29 05:55:09;;;;;;;5.17;4.77;;;5.40;87.60;;;;;;5077481;28;20272;-73
2022/12/29 05:57:35;;;;;;;9.13;5.27;;;5.50;88.00;;;;;;5072265;28;20206;-73
2022/12/29 06:00:02;;;;;;;9.20;6.33;;;5.50;87.80;;;;;;5072751;28;20191;-73
2022/12/29 06:02:27;;;;;;;7.23;6.20;;;5.60;88.00;;;;;;5072099;28;20186;-74
2022/12/29 06:04:53;;;;;;;12.13;6.63;;;5.60;88.00;;;;;;5071403;28;20178;-73
2022/12/29 06:07:18;;;;;;;13.40;6.73;;;5.60;87.90;;;;;;5076015;28;20186;-73
2022/12/29 06:09:44;;;;;;;12.67;7.17;;;5.60;87.60;;;;;;5074329;28;20186;-73
2022/12/29 06:12:10;;;;;;;12.53;7.43;;;5.60;87.60;;;;;;5075293;28;20190;-75
2022/12/29 06:14:35;;;;;;;11.97;8.07;;;5.60;87.70;;;;;;5072599;28;20192;-74
2022/12/29 06:17:01;;;;;;;22.30;12.80;;;5.70;87.90;;;;;;5071549;28;20232;-73
2022/12/29 06:19:26;;;;;;;15.83;10.43;;;5.70;87.80;;;;;;5082694;28;20651;-75
2022/12/29 06:21:52;;;;;;;15.97;9.50;;;5.80;87.90;;;;;;5077742;28;20591;-74
2022/12/29 06:24:18;;;;;;;15.03;8.10;;;5.80;88.20;;;;;;5061454;28;20628;-74
2022/12/29 06:26:44;;;;;;;16.17;9.50;;;5.90;88.10;;;;;;5075420;28;20187;-73
2022/12/29 06:29:10;;;;;;;16.43;9.33;;;5.90;88.30;;;;;;5072475;28;20244;-73
2022/12/29 06:31:35;;;;;;;14.90;9.50;;;6.00;88.20;;;;;;5072879;28;20186;-74
2022/12/29 06:34:02;;;;;;;12.13;8.93;;;6.10;88.30;;;;;;5077318;28;20210;-73
2022/12/29 06:36:28;;;;;;;16.37;8.67;;;6.10;88.20;;;;;;5076494;28;20249;-74
2022/12/29 06:38:54;;;;;;;11.27;8.87;;;6.20;88.20;;;;;;5076773;28;20210;-74
2022/12/29 06:41:20;;;;;;;15.57;9.03;;;6.20;88.10;;;;;;5060023;28;20189;-74
2022/12/29 06:43:46;;;;;;;18.77;9.80;;;6.30;88.00;;;;;;5075315;28;20239;-73
2022/12/29 06:46:12;;;;;;;13.27;8.47;;;6.30;88.10;;;;;;5076251;28;20179;-72
2022/12/29 06:48:37;;;;;;;13.93;9.03;;;6.40;88.40;;;;;;5071803;28;20203;-73
2022/12/29 06:51:03;;;;;;;14.63;9.17;;;6.50;88.40;;;;;;5074608;28;20193;-75
2022/12/29 06:53:29;;;;;;;17.13;8.53;;;6.70;88.40;;;;;;5075460;28;20226;-75
2022/12/29 06:55:56;;;;;;;13.23;8.47;;;6.80;87.50;;;;;;5073434;28;20630;-74
2022/12/29 06:58:22;;;;;;;13.33;8.57;;;6.80;87.20;;;;;;5078795;28;20203;-76
2022/12/29 07:00:48;;;;;;;18.23;8.93;;;6.90;87.10;;;;;;5076788;28;20240;-74
2022/12/29 07:03:13;;;;;;;10.10;7.93;;;6.90;87.20;;;;;;5054658;28;20305;-74
2022/12/29 07:05:39;;;;;;;15.13;9.57;;;7.00;87.50;;;;;;5078615;28;20179;-73
2022/12/29 07:08:05;;;;;;;16.50;9.93;;;7.20;88.20;;;;;;5076929;28;20217;-73
2022/12/29 07:10:31;;;;;;;18.43;10.77;;;7.50;88.60;;;;;;5056906;28;20186;-75
2022/12/29 07:12:57;;;;;;;15.17;10.27;;;7.90;88.90;;;;;;5075480;28;20186;-73
2022/12/29 07:15:22;;;;;;;12.53;8.43;;;8.20;88.70;;;;;;5083663;28;20178;-74
2022/12/29 07:17:49;;;;;;;15.10;9.03;;;8.60;88.20;;;;;;5076029;28;20203;-75
2022/12/29 07:20:15;;;;;;;15.10;9.07;;;9.10;87.70;;;;;;5076051;28;21033;-74
2022/12/29 07:22:41;;;;;;;13.80;9.80;;;9.50;87.20;;;;;;5077993;28;20258;-74
2022/12/29 07:25:07;;;;;;;15.70;10.10;;;10.00;85.80;;;;;;5076994;28;20257;-75
2022/12/29 07:27:33;;;;;;;15.93;10.03;;;10.40;85.20;;;;;;5075643;28;20569;-74
2022/12/29 07:29:58;;;;;;;25.83;11.27;;;10.80;82.90;;;;;;5078552;28;20240;-72
2022/12/29 07:32:24;;;;;;;22.90;10.73;;;11.10;78.80;;;;;;5087986;28;20197;-75
2022/12/29 07:34:50;;;;;;;18.27;10.77;;;11.30;78.40;;;;;;5084594;28;20190;-74
2022/12/29 07:37:15;;;;;;;13.15;10.13;;;11.60;77.70;;;;;;5076465;28;20189;-73
2022/12/29 07:39:41;;;;;;;14.27;9.48;;;11.90;76.50;;;;;;5082094;28;20189;-74
2022/12/29 07:42:07;;;;;;;14.25;9.50;;;12.20;77.60;;;;;;5087181;28;20183;-74
2022/12/29 07:44:32;;;;;;;12.75;9.45;;;12.50;75.80;;;;;;5085266;28;20187;-74
2022/12/29 07:46:58;;;;;;;17.83;10.55;;;12.90;77.00;;;;;;5076817;28;20186;-74
2022/12/29 07:49:24;;;;;;;12.45;9.48;;;13.30;75.30;;;;;;5080883;28;20191;-74
2022/12/29 07:51:49;;;;;;;13.75;9.25;;;13.70;75.90;;;;;;5081503;28;20246;-74
2022/12/29 07:54:17;;;;;;;17.23;9.70;;;14.20;75.80;;;;;;5076294;28;20190;-73
2022/12/29 07:56:44;;;;;;;15.30;10.02;;;14.70;74.30;;;;;;5062122;28;20186;-74
2022/12/29 07:59:09;;;;;;;14.25;9.75;;;15.10;74.00;;;;;;5084193;28;20865;-74
2022/12/29 08:01:35;;;;;;;14.13;10.65;;;15.60;71.70;;;;;;5081678;28;20186;-74
2022/12/29 08:04:01;;;;;;;14.40;10.90;;;16.00;70.60;;;;;;5076702;28;20183;-73
2022/12/29 08:06:26;;;;;;;16.20;11.27;;;16.40;70.50;;;;;;5085612;28;20179;-75
2022/12/29 08:08:52;;;;;;;16.13;10.98;;;16.80;70.20;;;;;;5085904;28;20250;-75
2022/12/29 08:11:18;;;;;;;19.75;11.02;;;17.20;69.70;;;;;;5085195;28;20187;-74
2022/12/29 08:13:43;;;;;;;14.65;12.05;;;17.50;64.30;;;;;;5077339;28;20198;-73
2022/12/29 08:16:09;;;;;;;16.73;11.80;;;17.80;65.90;;;;;;5081880;28;20190;-75
2022/12/29 08:18:34;;;;;;;16.92;11.93;;;18.00;65.90;;;;;;5078279;28;20230;-73
2022/12/29 08:21:04;;;;;;;17.55;12.63;;;18.20;64.90;;;;;;5082454;28;20183;-74
2022/12/29 08:23:30;;;;;;;20.33;13.10;;;18.50;64.20;;;;;;5083002;28;20187;-75
2022/12/29 08:26:00;;;;;;;18.10;12.13;;;18.60;63.60;;;;;;5082407;28;20174;-74
2022/12/29 08:28:26;;;;;;;17.58;12.57;;;18.80;63.90;;;;;;5069459;28;20701;-73
2022/12/29 08:30:52;;;;;;;16.77;12.43;;;18.90;60.90;;;;;;5070909;28;20179;-73
2022/12/29 08:33:18;;;;;;;17.92;12.90;;;18.90;62.80;;;;;;5069555;28;20210;-73
2022/12/29 08:35:44;;;;;;;23.35;12.48;;;19.00;62.40;;;;;;5070411;28;20273;-74
2022/12/29 08:38:11;;;;;;;15.27;12.05;;;19.00;62.50;;;;;;5080231;28;20760;-75
2022/12/29 08:40:37;;;;;;;15.68;11.63;;;19.00;62.40;;;;;;5080621;28;20179;-75
2022/12/29 08:43:02;;;;;;;16.05;12.05;;;19.10;62.20;;;;;;5075571;28;20227;-75
2022/12/29 08:45:28;;;;;;;15.63;11.63;;;19.30;62.10;;;;;;5074765;28;20183;-75
2022/12/29 08:47:54;;;;;;;14.70;11.27;;;19.40;61.90;;;;;;5076263;28;20178;-75
2022/12/29 08:50:19;;;;;;;16.60;11.90;;;19.60;61.60;;;;;;5074627;28;20186;-74
2022/12/29 08:52:45;;;;;;;18.33;12.00;;;19.80;61.10;;;;;;5073721;28;20185;-75
2022/12/29 08:55:11;;;;;;;17.15;11.88;;;19.90;60.60;;;;;;5075607;28;20261;-74
2022/12/29 08:57:37;;;;;;;15.35;12.05;;;20.10;60.70;;;;;;5073908;28;20242;-76
2022/12/29 09:00:04;;;;;;;22.52;12.85;;;20.40;59.80;;;;;;5072123;28;20253;-75
2022/12/29 09:02:29;;;;;;;14.77;12.43;;;20.60;58.90;;;;;;5074303;28;20190;-74
2022/12/29 09:04:57;;;;;;;17.83;11.27;;;20.70;59.30;;;;;;5073879;28;20190;-76
2022/12/29 09:07:23;;;;;;;14.32;11.73;;;20.80;59.60;;;;;;5071115;28;20185;-76
2022/12/29 09:09:49;;;;;;;14.98;12.02;;;20.90;59.20;;;;;;5056256;28;20189;-75
2022/12/29 09:12:16;;;;;;;16.20;11.63;;;21.10;59.00;;;;;;5075485;28;20183;-75
2022/12/29 09:14:42;;;;;;;14.70;11.60;;;21.30;59.00;;;;;;5071605;28;20735;-74
2022/12/29 09:19:53;;;;;;;14.70;12.00;;;21.70;58.30;;;;;;5068539;28;20243;-74
2022/12/29 09:22:18;;;;;;;15.57;11.45;;;21.90;57.80;;;;;;5075443;28;20692;-74
2022/12/29 09:24:44;;;;;;;15.40;11.57;;;22.10;57.50;;;;;;5075829;28;20182;-75
2022/12/29 09:27:10;;;;;;;16.42;12.35;;;22.20;57.70;;;;;;5078549;28;20186;-76
2022/12/29 09:29:35;;;;;;;21.05;12.27;;;22.30;57.40;;;;;;5072481;28;20622;-76
2022/12/29 09:32:01;;;;;;;14.20;11.55;;;22.50;57.10;;;;;;5074545;28;20182;-75
2022/12/29 09:34:27;;;;;;;20.63;12.80;;;22.70;56.00;;;;;;5071660;28;20195;-74
2022/12/29 09:36:53;;;;;;;16.83;13.88;;;22.80;57.10;;;;;;5077807;28;20185;-75
2022/12/29 09:39:18;;;;;;;16.52;12.70;;;22.90;56.80;;;;;;5076696;28;20207;-75
2022/12/29 09:42:07;;;;;;;16.55;12.48;;;23.00;55.90;;;;;;5082667;28;20179;-76
2022/12/29 09:45:03;;;;;;;18.52;13.73;;;23.00;56.90;;;;;;5075041;28;20315;-76
2022/12/29 09:47:29;;;;;;;17.27;13.13;;;23.10;56.00;;;;;;5074891;28;20577;-76
2022/12/29 09:50:01;;;;;;;18.10;14.65;;;23.30;56.40;;;;;;5077985;28;20174;-75
2022/12/29 09:52:44;;;;;;;19.38;12.93;;;23.40;54.30;;;;;;5077249;28;20182;-75
2022/12/29 09:55:13;;;;;;;18.98;14.90;;;23.50;56.10;;;;;;5066383;28;20683;-75
2022/12/29 09:57:56;;;;;;;17.67;13.65;;;23.60;54.10;;;;;;5068642;28;20225;-74
2022/12/29 10:00:37;;;;;;;17.67;14.60;;;23.60;54.90;;;;;;5072020;28;20183;-74
2022/12/29 10:03:20;;;;;;;19.17;15.18;;;23.70;55.40;;;;;;5076592;28;20182;-74
2022/12/29 10:05:48;;;;;;;17.80;13.35;;;23.60;52.40;;;;;;5076007;28;20179;-74
2022/12/29 10:08:16;;;;;;;18.88;13.60;;;23.30;53.80;;;;;;5074627;28;20182;-75
2022/12/29 10:10:55;;;;;;;17.52;14.55;;;23.20;52.00;;;;;;5076199;28;20171;-75
2022/12/29 10:13:21;;;;;;;17.27;13.43;;;23.00;55.70;;;;;;5073840;28;20251;-79
2022/12/29 10:15:59;;;;;;;16.23;13.50;;;23.10;55.10;;;;;;5072559;28;20179;-74
2022/12/29 10:19:16;;;;;;;16.25;13.05;;;23.20;53.90;;;;;;5069786;28;20206;-77
2022/12/29 10:21:57;;;;;;;17.08;13.77;;;23.30;52.50;;;;;;4987865;28;20206;-78
2022/12/29 10:24:26;;;;;;;15.15;11.63;;;23.50;55.90;;;;;;4985797;28;21101;-77
2022/12/29 10:26:53;;;;;;;17.80;13.13;;;23.80;54.00;;;;;;4976356;28;20238;-79
2022/12/29 10:29:21;;;;;;;19.08;12.68;;;24.00;54.80;;;;;;4980312;28;20836;-79
2022/12/29 10:32:21;;;;;;;17.85;13.20;;;24.30;54.90;;;;;;4983256;28;20217;-80
2022/12/29 10:34:54;;;;;;;16.65;14.02;;;24.50;52.40;;;;;;4905595;29;20316;-76
2022/12/29 10:37:43;;;;;;;14.98;12.90;;;24.70;52.60;;;;;;4903868;29;20236;-76
2022/12/29 10:40:42;;;;;;;15.32;12.93;;;24.60;52.10;;;;;;4890160;29;20609;-74
2022/12/29 10:43:29;;;;;;;16.27;11.95;;;24.70;51.30;;;;;;4878457;29;20786;-74
2022/12/29 10:45:59;;;;;;;14.60;12.27;;;24.90;52.50;;;;;;4874749;29;20201;-75
2022/12/29 10:48:33;;;;;;;15.85;12.68;;;24.90;52.80;;;;;;4874074;29;20728;-75
2022/12/29 10:51:03;;;;;;;18.52;13.07;;;24.80;51.60;;;;;;4874427;29;20203;-74
2022/12/29 10:53:55;;;;;;;12.85;11.20;;;24.70;52.50;;;;;;4875024;29;20719;-75
2022/12/29 10:56:44;;;;;;;15.95;12.88;;;24.70;52.10;;;;;;4881761;29;20204;-75
2022/12/29 10:59:25;;;;;;;14.75;12.68;;;24.50;50.10;;;;;;4936019;29;20312;-74
2022/12/29 11:02:08;;;;;;;20.42;12.98;;;24.50;51.50;;;;;;4932011;29;20207;-73
2022/12/29 11:04:39;;;;;;;17.52;13.93;;;24.40;53.00;;;;;;4932519;28;20286;-73
2022/12/29 11:07:06;;;;;;;16.27;12.60;;;24.20;52.20;;;;;;4935224;29;20244;-72
2022/12/29 11:09:35;;;;;;;14.43;11.98;;;24.10;53.80;;;;;;4916618;29;20285;-72
2022/12/29 11:12:17;;;;;;;15.40;11.93;;;23.90;51.70;;;;;;4967357;28;20197;-73
2022/12/29 11:14:43;;;;;;;17.77;13.05;;;23.70;51.90;;;;;;4987006;28;20655;-72
2022/12/29 11:17:16;;;;;;;18.83;13.07;;;23.50;52.40;;;;;;4988645;28;20178;-71
2022/12/29 11:19:42;;;;;;;14.98;12.32;;;23.40;52.30;;;;;;5023978;28;20213;-72
2022/12/29 11:22:22;;;;;;;15.93;11.95;;;23.40;53.50;;;;;;5076054;28;20179;-72
2022/12/29 11:24:50;;;;;;;15.27;11.18;;;23.30;51.40;;;;;;5078564;28;20178;-73
2022/12/29 11:27:24;;;;;;;16.92;11.88;;;23.50;54.50;;;;;;5073617;28;20178;-72
2022/12/29 11:29:53;;;;;;;14.40;12.07;;;23.70;53.80;;;;;;5077745;28;20188;-72
2022/12/29 11:32:25;;;;;;;14.98;12.77;;;23.90;53.30;;;;;;5075049;28;20415;-71
2022/12/29 11:34:51;;;;;;;13.98;10.57;;;24.10;52.00;;;;;;5074889;28;20191;-71
2022/12/29 11:37:18;;;;;;;11.90;10.15;;;24.30;54.00;;;;;;5073305;28;20214;-70
2022/12/29 11:39:57;;;;;;;15.73;11.80;;;24.40;52.30;;;;;;5073429;28;20270;-71
2022/12/29 11:42:34;;;;;;;13.55;10.50;;;24.50;50.90;;;;;;5071559;28;20274;-73
2022/12/29 11:45:06;;;;;;;16.45;10.18;;;24.60;51.00;;;;;;5074171;28;20182;-71
2022/12/29 11:47:33;;;;;;;10.10;8.73;;;24.70;53.80;;;;;;5081233;28;20194;-73
2022/12/29 11:50:06;;;;;;;11.80;9.48;;;24.80;53.30;;;;;;5079746;28;20178;-72
2022/12/29 11:52:36;;;;;;;15.93;9.65;;;25.00;53.90;;;;;;5077120;28;20269;-72
2022/12/29 11:55:05;;;;;;;14.68;9.45;;;25.10;51.20;;;;;;5080080;28;20653;-71
2022/12/29 11:57:34;;;;;;;12.82;9.93;;;25.30;52.10;;;;;;5073755;28;20583;-72
2022/12/29 12:00:03;;;;;;;9.43;8.43;;;25.40;49.90;;;;;;5074550;28;20190;-72
2022/12/29 12:02:32;;;;;;;10.95;9.13;;;25.50;52.20;;;;;;5056969;28;20190;-71
2022/12/29 12:05:28;;;;;;;10.40;9.32;;;25.50;51.80;;;;;;5076947;28;20934;-71
2022/12/29 12:08:29;;;;;;;10.65;9.35;;;25.30;48.10;;;;;;5071208;28;20721;-72
2022/12/29 12:11:18;;;;;;;10.77;9.73;;;25.30;50.90;;;;;;4996963;28;20676;-72
2022/12/29 12:13:58;;;;;;;12.15;10.00;;;25.20;50.70;;;;;;5010487;28;20189;-71
2022/12/29 12:16:55;;;;;;;11.85;9.88;;;25.00;49.10;;;;;;4996319;28;20326;-71
2022/12/29 12:19:50;;;;;;;13.38;9.50;;;24.70;49.60;;;;;;5007570;28;21046;-72
2022/12/29 12:22:24;;;;;;;10.52;9.52;;;24.40;49.10;;;;;;4909354;29;20263;-71
2022/12/29 12:24:59;;;;;;;11.02;9.32;;;24.10;49.90;;;;;;4908338;29;20648;-70
2022/12/29 12:27:39;;;;;;;12.98;10.00;;;23.70;52.40;;;;;;4908453;29;20204;-71
2022/12/29 12:30:21;;;;;;;11.32;8.60;;;23.40;49.80;;;;;;4911154;29;20194;-71
2022/12/29 12:32:56;;;;;;;15.25;10.27;;;23.10;53.00;;;;;;4905646;29;20252;-70
2022/12/29 12:35:24;;;;;;;12.65;10.68;;;22.80;52.30;;;;;;4910626;29;20738;-71
2022/12/29 12:38:09;;;;;;;13.55;10.18;;;22.20;52.40;;;;;;4906046;29;20224;-72
2022/12/29 12:40:46;;;;;;;10.20;9.13;;;21.70;52.40;;;;;;4908018;29;20762;-72
2022/12/29 12:43:23;;;;;;;14.45;10.52;;;21.70;53.40;;;;;;4908060;29;20199;-70
2022/12/29 12:46:11;;;;;;;12.57;10.50;;;21.60;52.60;;;;;;4909793;29;20298;-71
2022/12/29 12:48:57;;;;;;;10.88;9.10;;;21.40;53.20;;;;;;4964940;28;20189;-71
2022/12/29 12:51:50;;;;;;;11.57;9.85;;;21.30;53.30;;;;;;4967150;28;20185;-73
2022/12/29 12:54:27;;;;;;;10.43;9.40;;;21.20;54.20;;;;;;4967775;28;20221;-71
2022/12/29 12:57:05;;;;;;;10.00;8.85;;;21.00;54.90;;;;;;4962647;28;20189;-72
2022/12/29 12:59:45;;;;;;;14.13;9.27;;;20.70;54.30;;;;;;5029742;28;20308;-72
2022/12/29 13:02:35;;;;;;;12.45;9.73;;;20.60;54.80;;;;;;5075613;28;20193;-71
2022/12/29 13:05:19;;;;;;;10.38;9.30;;;20.20;54.40;;;;;;5077477;28;20185;-71
2022/12/29 13:08:13;;;;;;;13.00;10.07;;;19.80;55.80;;;;;;5072490;28;20185;-71
2022/12/29 13:10:54;;;;;;;9.85;8.57;;;19.60;56.20;;;;;;5075331;28;20171;-70
2022/12/29 13:13:23;;;;;;;14.63;9.05;;;19.60;57.10;;;;;;5073020;28;20192;-71
2022/12/29 13:15:57;;;;;;;11.98;8.95;;;19.60;56.70;;;;;;5072766;28;20206;-73
2022/12/29 13:18:44;;;;;;;11.77;9.57;;;19.60;56.60;;;;;;5075478;28;21696;-73
2022/12/29 13:21:29;;;;;;;12.25;9.40;;;19.70;57.00;;;;;;5077142;28;20742;-73
2022/12/29 13:24:19;;;;;;;12.15;9.57;;;19.80;56.90;;;;;;5054475;28;20668;-76
2022/12/29 13:26:50;;;;;;;14.75;9.43;;;19.90;56.60;;;;;;5075723;28;20174;-73
2022/12/29 13:29:22;;;;;;;11.25;9.50;;;20.00;56.70;;;;;;5076267;28;20840;-75
2022/12/29 13:32:03;;;;;;;16.48;9.73;;;19.90;56.30;;;;;;5077206;28;20179;-73
2022/12/29 13:34:41;;;;;;;14.07;9.90;;;19.90;56.20;;;;;;5072452;28;20202;-74
2022/12/29 13:37:15;;;;;;;13.80;9.65;;;19.80;56.50;;;;;;5072611;28;20764;-73